Pagrindinis puslapis
METAR-TAF:

METAR-TAF

Oro uostai :

Londono Hitrou oro uostas

Londonas Heathrow, Anglija

platuma: 51-29N, ilguma: 000-27W, Aukštis: 24 m

Dabartinis oras

Ataskaita buvo paskelbta 42 minutes, ne 22:50 UTC
Vėjas 8 kt iš Rytų
Temperatūra 14°C
Drėgmė 77%
Slėgis 1019 hPa
Matomumas 10 km arba daugiau

METAR: EGLL 202250Z AUTO 09008KT 9999 NCD 14/10 Q1019 NOSIG

Laikas: 00:32 (23:32 UTC)

Prognozė

Ataskaita buvo paskelbta 6 valandos ir 33 minutes, ne 16:59 UTC
Prognozė galioja nuo 20 metu 18 UTC su 21 metu 24 UTC
Vėjas 12 kt iš Rytų/Pietryčių
Matomumas 10 km arba daugiau
nėra debesų žemiau 1500 m ir nėra kamuolinių lietaus debesų

TAF: EGLL 201659Z 2018/2124 11012KT CAVOK

Orai ataskaitas ir orų prognozės (METAR, TAF).

turimą stotys yra geltonos ir raudonos taškus žemėlapyje.

Perkelti pele per norėdami pamatyti stoties vardą.

Tada spustelėkite, norėdami matyti oro stebėjimo ir prognozės.

Norėdami pakeisti žemėlapį: spustelėkite ant žalios mygtukų su juodo kryžiaus žemyn,; žalią mygtuką su brūkšneliu, jei norite nutolinti; arba žalių rodyklių gretimoms žemėlapius.


METAR-TAF: